sensor_id;sensor_type;location;lat;lon;timestamp;P1;durP1;ratioP1;P2;durP2;ratioP2
23658;SDS011;12006;42.666;23.326;2023-05-10T00:01:39;5.40;;;4.13;;
23658;SDS011;12006;42.666;23.326;2023-05-10T00:04:05;7.33;;;4.77;;
23658;SDS011;12006;42.666;23.326;2023-05-10T00:06:31;5.43;;;4.70;;
23658;SDS011;12006;42.666;23.326;2023-05-10T00:08:57;5.27;;;4.43;;
23658;SDS011;12006;42.666;23.326;2023-05-10T00:11:22;5.37;;;4.83;;
23658;SDS011;12006;42.666;23.326;2023-05-10T00:13:48;5.93;;;5.13;;
23658;SDS011;12006;42.666;23.326;2023-05-10T00:16:13;5.57;;;5.03;;
23658;SDS011;12006;42.666;23.326;2023-05-10T00:18:39;7.50;;;5.20;;
23658;SDS011;12006;42.666;23.326;2023-05-10T00:21:05;6.37;;;4.87;;
23658;SDS011;12006;42.666;23.326;2023-05-10T00:23:31;5.27;;;4.77;;
23658;SDS011;12006;42.666;23.326;2023-05-10T00:25:56;6.17;;;5.07;;
23658;SDS011;12006;42.666;23.326;2023-05-10T00:28:22;5.80;;;4.90;;
23658;SDS011;12006;42.666;23.326;2023-05-10T00:30:47;6.40;;;5.10;;
23658;SDS011;12006;42.666;23.326;2023-05-10T00:33:12;6.07;;;5.47;;
23658;SDS011;12006;42.666;23.326;2023-05-10T00:35:38;7.90;;;5.70;;
23658;SDS011;12006;42.666;23.326;2023-05-10T00:38:03;5.83;;;5.23;;
23658;SDS011;12006;42.666;23.326;2023-05-10T00:40:29;5.60;;;4.97;;
23658;SDS011;12006;42.666;23.326;2023-05-10T00:42:55;6.23;;;5.27;;
23658;SDS011;12006;42.666;23.326;2023-05-10T00:45:21;7.80;;;5.93;;
23658;SDS011;12006;42.666;23.326;2023-05-10T00:47:47;5.53;;;4.90;;
23658;SDS011;12006;42.666;23.326;2023-05-10T00:50:13;6.60;;;5.60;;
23658;SDS011;12006;42.666;23.326;2023-05-10T00:52:40;7.03;;;5.97;;
23658;SDS011;12006;42.666;23.326;2023-05-10T00:55:07;6.47;;;5.87;;
23658;SDS011;12006;42.666;23.326;2023-05-10T00:57:34;6.23;;;5.63;;
23658;SDS011;12006;42.666;23.326;2023-05-10T00:59:59;6.87;;;5.90;;
23658;SDS011;12006;42.666;23.326;2023-05-10T01:02:27;7.77;;;6.63;;
23658;SDS011;12006;42.666;23.326;2023-05-10T01:04:53;7.03;;;6.33;;
23658;SDS011;12006;42.666;23.326;2023-05-10T01:07:19;7.33;;;6.37;;
23658;SDS011;12006;42.666;23.326;2023-05-10T01:09:44;7.37;;;6.20;;
23658;SDS011;12006;42.666;23.326;2023-05-10T01:12:10;7.60;;;6.80;;
23658;SDS011;12006;42.666;23.326;2023-05-10T01:14:36;7.07;;;6.20;;
23658;SDS011;12006;42.666;23.326;2023-05-10T01:17:02;6.60;;;6.00;;
23658;SDS011;12006;42.666;23.326;2023-05-10T01:19:29;6.83;;;5.77;;
23658;SDS011;12006;42.666;23.326;2023-05-10T01:25:18;7.47;;;5.90;;
23658;SDS011;12006;42.666;23.326;2023-05-10T01:28:25;7.50;;;6.30;;
23658;SDS011;12006;42.666;23.326;2023-05-10T01:34:09;7.13;;;5.87;;
23658;SDS011;12006;42.666;23.326;2023-05-10T01:37:02;5.80;;;5.20;;
23658;SDS011;12006;42.666;23.326;2023-05-10T01:39:36;6.00;;;5.40;;
23658;SDS011;12006;42.666;23.326;2023-05-10T01:42:11;6.93;;;5.90;;
23658;SDS011;12006;42.666;23.326;2023-05-10T01:47:37;7.63;;;4.87;;
23658;SDS011;12006;42.666;23.326;2023-05-10T01:50:06;5.63;;;5.03;;
23658;SDS011;12006;42.666;23.326;2023-05-10T01:52:42;5.30;;;4.70;;
23658;SDS011;12006;42.666;23.326;2023-05-10T01:55:13;4.27;;;3.97;;
23658;SDS011;12006;42.666;23.326;2023-05-10T01:57:42;5.33;;;4.83;;
23658;SDS011;12006;42.666;23.326;2023-05-10T02:00:09;5.10;;;4.60;;
23658;SDS011;12006;42.666;23.326;2023-05-10T02:02:40;3.87;;;3.57;;
23658;SDS011;12006;42.666;23.326;2023-05-10T02:05:09;4.87;;;3.90;;
23658;SDS011;12006;42.666;23.326;2023-05-10T02:07:38;4.23;;;3.57;;
23658;SDS011;12006;42.666;23.326;2023-05-10T02:10:04;4.07;;;3.70;;
23658;SDS011;12006;42.666;23.326;2023-05-10T02:12:34;3.70;;;3.40;;
23658;SDS011;12006;42.666;23.326;2023-05-10T02:15:02;4.77;;;4.37;;
23658;SDS011;12006;42.666;23.326;2023-05-10T02:17:29;4.40;;;3.57;;
23658;SDS011;12006;42.666;23.326;2023-05-10T02:19:56;4.53;;;4.13;;
23658;SDS011;12006;42.666;23.326;2023-05-10T02:22:24;4.07;;;3.70;;
23658;SDS011;12006;42.666;23.326;2023-05-10T02:24:52;4.13;;;3.73;;
23658;SDS011;12006;42.666;23.326;2023-05-10T02:27:20;6.27;;;4.37;;
23658;SDS011;12006;42.666;23.326;2023-05-10T02:29:49;4.47;;;3.77;;
23658;SDS011;12006;42.666;23.326;2023-05-10T02:32:15;4.57;;;3.73;;
23658;SDS011;12006;42.666;23.326;2023-05-10T02:34:42;3.70;;;3.40;;
23658;SDS011;12006;42.666;23.326;2023-05-10T02:37:10;3.47;;;3.17;;
23658;SDS011;12006;42.666;23.326;2023-05-10T02:39:38;3.17;;;2.87;;
23658;SDS011;12006;42.666;23.326;2023-05-10T02:42:08;4.77;;;3.50;;
23658;SDS011;12006;42.666;23.326;2023-05-10T02:44:40;4.17;;;3.77;;
23658;SDS011;12006;42.666;23.326;2023-05-10T02:47:06;6.30;;;4.17;;
23658;SDS011;12006;42.666;23.326;2023-05-10T02:49:31;4.03;;;3.50;;
23658;SDS011;12006;42.666;23.326;2023-05-10T02:51:58;4.73;;;4.07;;
23658;SDS011;12006;42.666;23.326;2023-05-10T02:54:29;4.43;;;3.57;;
23658;SDS011;12006;42.666;23.326;2023-05-10T02:56:57;5.23;;;3.53;;
23658;SDS011;12006;42.666;23.326;2023-05-10T02:59:25;3.90;;;3.50;;
23658;SDS011;12006;42.666;23.326;2023-05-10T03:01:51;4.27;;;3.67;;
23658;SDS011;12006;42.666;23.326;2023-05-10T03:04:16;4.20;;;3.63;;
23658;SDS011;12006;42.666;23.326;2023-05-10T03:06:42;4.70;;;4.03;;
23658;SDS011;12006;42.666;23.326;2023-05-10T03:09:07;4.07;;;3.67;;
23658;SDS011;12006;42.666;23.326;2023-05-10T03:16:52;5.00;;;4.17;;
23658;SDS011;12006;42.666;23.326;2023-05-10T03:22:23;4.40;;;3.77;;
23658;SDS011;12006;42.666;23.326;2023-05-10T03:24:53;5.13;;;3.47;;
23658;SDS011;12006;42.666;23.326;2023-05-10T03:27:22;3.80;;;3.40;;
23658;SDS011;12006;42.666;23.326;2023-05-10T03:29:50;4.13;;;3.63;;
23658;SDS011;12006;42.666;23.326;2023-05-10T03:32:16;4.70;;;3.30;;
23658;SDS011;12006;42.666;23.326;2023-05-10T03:34:42;5.13;;;3.33;;
23658;SDS011;12006;42.666;23.326;2023-05-10T03:37:08;5.63;;;3.30;;
23658;SDS011;12006;42.666;23.326;2023-05-10T03:39:34;3.53;;;3.00;;
23658;SDS011;12006;42.666;23.326;2023-05-10T03:41:59;3.93;;;3.53;;
23658;SDS011;12006;42.666;23.326;2023-05-10T03:44:24;4.70;;;3.57;;
23658;SDS011;12006;42.666;23.326;2023-05-10T03:46:50;3.27;;;2.97;;
23658;SDS011;12006;42.666;23.326;2023-05-10T03:49:15;6.00;;;3.33;;
23658;SDS011;12006;42.666;23.326;2023-05-10T03:51:41;3.77;;;3.10;;
23658;SDS011;12006;42.666;23.326;2023-05-10T03:54:06;5.23;;;3.40;;
23658;SDS011;12006;42.666;23.326;2023-05-10T03:56:31;4.53;;;3.07;;
23658;SDS011;12006;42.666;23.326;2023-05-10T03:58:57;6.23;;;3.17;;
23658;SDS011;12006;42.666;23.326;2023-05-10T04:01:22;4.97;;;3.30;;
23658;SDS011;12006;42.666;23.326;2023-05-10T04:03:48;4.83;;;3.27;;
23658;SDS011;12006;42.666;23.326;2023-05-10T04:06:13;5.17;;;3.13;;
23658;SDS011;12006;42.666;23.326;2023-05-10T04:08:39;3.67;;;3.30;;
23658;SDS011;12006;42.666;23.326;2023-05-10T04:11:08;4.17;;;3.13;;
23658;SDS011;12006;42.666;23.326;2023-05-10T04:13:34;5.03;;;3.57;;
23658;SDS011;12006;42.666;23.326;2023-05-10T04:16:00;3.67;;;2.97;;
23658;SDS011;12006;42.666;23.326;2023-05-10T04:18:25;4.67;;;3.57;;
23658;SDS011;12006;42.666;23.326;2023-05-10T04:20:51;4.10;;;3.30;;
23658;SDS011;12006;42.666;23.326;2023-05-10T04:23:16;3.23;;;2.93;;
23658;SDS011;12006;42.666;23.326;2023-05-10T04:25:42;3.73;;;3.17;;
23658;SDS011;12006;42.666;23.326;2023-05-10T04:28:07;4.23;;;3.73;;
23658;SDS011;12006;42.666;23.326;2023-05-10T04:30:33;4.30;;;3.73;;
23658;SDS011;12006;42.666;23.326;2023-05-10T04:32:59;4.87;;;3.67;;
23658;SDS011;12006;42.666;23.326;2023-05-10T04:35:24;4.20;;;3.20;;
23658;SDS011;12006;42.666;23.326;2023-05-10T04:37:49;5.47;;;3.13;;
23658;SDS011;12006;42.666;23.326;2023-05-10T04:40:15;4.00;;;3.60;;
23658;SDS011;12006;42.666;23.326;2023-05-10T04:42:40;3.57;;;3.23;;
23658;SDS011;12006;42.666;23.326;2023-05-10T04:45:08;4.53;;;3.67;;
23658;SDS011;12006;42.666;23.326;2023-05-10T04:47:35;4.03;;;3.70;;
23658;SDS011;12006;42.666;23.326;2023-05-10T04:50:02;6.60;;;5.00;;
23658;SDS011;12006;42.666;23.326;2023-05-10T04:52:28;5.10;;;4.27;;
23658;SDS011;12006;42.666;23.326;2023-05-10T04:54:53;5.30;;;4.77;;
23658;SDS011;12006;42.666;23.326;2023-05-10T04:57:18;8.20;;;6.60;;
23658;SDS011;12006;42.666;23.326;2023-05-10T04:59:44;6.83;;;5.50;;
23658;SDS011;12006;42.666;23.326;2023-05-10T05:02:09;5.47;;;4.07;;
23658;SDS011;12006;42.666;23.326;2023-05-10T05:04:35;5.53;;;4.37;;
23658;SDS011;12006;42.666;23.326;2023-05-10T05:07:00;4.10;;;3.70;;
23658;SDS011;12006;42.666;23.326;2023-05-10T05:09:25;4.63;;;3.87;;
23658;SDS011;12006;42.666;23.326;2023-05-10T05:11:51;5.30;;;4.27;;
23658;SDS011;12006;42.666;23.326;2023-05-10T05:14:16;6.93;;;4.27;;
23658;SDS011;12006;42.666;23.326;2023-05-10T05:16:41;4.83;;;3.80;;
23658;SDS011;12006;42.666;23.326;2023-05-10T05:19:07;4.17;;;3.30;;
23658;SDS011;12006;42.666;23.326;2023-05-10T05:21:32;4.73;;;4.27;;
23658;SDS011;12006;42.666;23.326;2023-05-10T05:23:58;7.97;;;4.30;;
23658;SDS011;12006;42.666;23.326;2023-05-10T05:26:23;5.50;;;4.83;;
23658;SDS011;12006;42.666;23.326;2023-05-10T05:28:48;4.23;;;3.83;;
23658;SDS011;12006;42.666;23.326;2023-05-10T05:31:17;5.00;;;4.00;;
23658;SDS011;12006;42.666;23.326;2023-05-10T05:33:42;4.17;;;3.77;;
23658;SDS011;12006;42.666;23.326;2023-05-10T05:36:08;4.17;;;3.53;;
23658;SDS011;12006;42.666;23.326;2023-05-10T05:38:34;5.57;;;4.57;;
23658;SDS011;12006;42.666;23.326;2023-05-10T05:40:59;5.07;;;4.57;;
23658;SDS011;12006;42.666;23.326;2023-05-10T05:43:25;5.73;;;4.93;;
23658;SDS011;12006;42.666;23.326;2023-05-10T05:45:51;6.27;;;5.20;;
23658;SDS011;12006;42.666;23.326;2023-05-10T05:48:18;5.80;;;5.20;;
23658;SDS011;12006;42.666;23.326;2023-05-10T05:50:44;5.20;;;4.33;;
23658;SDS011;12006;42.666;23.326;2023-05-10T05:53:10;5.93;;;5.07;;
23658;SDS011;12006;42.666;23.326;2023-05-10T05:55:35;7.80;;;5.33;;
23658;SDS011;12006;42.666;23.326;2023-05-10T05:58:01;5.50;;;4.70;;
23658;SDS011;12006;42.666;23.326;2023-05-10T06:00:26;7.53;;;5.50;;
23658;SDS011;12006;42.666;23.326;2023-05-10T06:02:52;7.77;;;5.53;;
23658;SDS011;12006;42.666;23.326;2023-05-10T06:05:17;7.90;;;5.53;;
23658;SDS011;12006;42.666;23.326;2023-05-10T06:07:43;8.60;;;5.23;;
23658;SDS011;12006;42.666;23.326;2023-05-10T06:10:08;6.53;;;5.60;;
23658;SDS011;12006;42.666;23.326;2023-05-10T06:12:34;7.30;;;6.17;;
23658;SDS011;12006;42.666;23.326;2023-05-10T06:15:00;6.97;;;5.63;;
23658;SDS011;12006;42.666;23.326;2023-05-10T06:17:25;7.87;;;6.03;;
23658;SDS011;12006;42.666;23.326;2023-05-10T06:19:51;7.93;;;6.37;;
23658;SDS011;12006;42.666;23.326;2023-05-10T06:22:16;7.80;;;5.73;;
23658;SDS011;12006;42.666;23.326;2023-05-10T06:24:42;8.03;;;5.90;;
23658;SDS011;12006;42.666;23.326;2023-05-10T06:27:08;8.80;;;5.97;;
23658;SDS011;12006;42.666;23.326;2023-05-10T06:29:34;8.67;;;7.27;;
23658;SDS011;12006;42.666;23.326;2023-05-10T06:31:59;11.30;;;7.60;;
23658;SDS011;12006;42.666;23.326;2023-05-10T06:34:25;9.27;;;6.93;;
23658;SDS011;12006;42.666;23.326;2023-05-10T06:36:50;8.53;;;6.77;;
23658;SDS011;12006;42.666;23.326;2023-05-10T06:39:16;8.83;;;7.10;;
23658;SDS011;12006;42.666;23.326;2023-05-10T06:41:42;7.30;;;5.77;;
23658;SDS011;12006;42.666;23.326;2023-05-10T06:44:07;8.17;;;5.60;;
23658;SDS011;12006;42.666;23.326;2023-05-10T06:46:33;7.77;;;5.83;;
23658;SDS011;12006;42.666;23.326;2023-05-10T06:48:59;6.10;;;5.40;;
23658;SDS011;12006;42.666;23.326;2023-05-10T06:51:24;6.20;;;5.10;;
23658;SDS011;12006;42.666;23.326;2023-05-10T06:53:49;6.83;;;5.97;;
23658;SDS011;12006;42.666;23.326;2023-05-10T06:56:15;10.43;;;5.47;;
23658;SDS011;12006;42.666;23.326;2023-05-10T06:58:40;7.40;;;5.53;;
23658;SDS011;12006;42.666;23.326;2023-05-10T07:01:06;7.27;;;5.40;;
23658;SDS011;12006;42.666;23.326;2023-05-10T07:03:31;6.13;;;5.40;;
23658;SDS011;12006;42.666;23.326;2023-05-10T07:06:03;5.63;;;4.70;;
23658;SDS011;12006;42.666;23.326;2023-05-10T07:08:32;5.93;;;4.97;;
23658;SDS011;12006;42.666;23.326;2023-05-10T07:11:05;7.33;;;5.40;;
23658;SDS011;12006;42.666;23.326;2023-05-10T07:13:34;6.70;;;5.43;;
23658;SDS011;12006;42.666;23.326;2023-05-10T07:15:59;7.37;;;5.53;;
23658;SDS011;12006;42.666;23.326;2023-05-10T07:18:26;6.67;;;4.83;;
23658;SDS011;12006;42.666;23.326;2023-05-10T07:20:52;6.60;;;5.50;;
23658;SDS011;12006;42.666;23.326;2023-05-10T07:23:18;7.23;;;5.63;;
23658;SDS011;12006;42.666;23.326;2023-05-10T07:25:45;7.40;;;5.67;;
23658;SDS011;12006;42.666;23.326;2023-05-10T07:28:11;7.30;;;5.30;;
23658;SDS011;12006;42.666;23.326;2023-05-10T07:30:37;5.80;;;4.87;;
23658;SDS011;12006;42.666;23.326;2023-05-10T07:33:02;6.00;;;5.40;;
23658;SDS011;12006;42.666;23.326;2023-05-10T07:35:28;5.50;;;5.00;;
23658;SDS011;12006;42.666;23.326;2023-05-10T07:37:53;6.37;;;5.30;;
23658;SDS011;12006;42.666;23.326;2023-05-10T07:40:19;6.83;;;4.97;;
23658;SDS011;12006;42.666;23.326;2023-05-10T07:42:44;6.67;;;5.97;;
23658;SDS011;12006;42.666;23.326;2023-05-10T07:45:10;6.20;;;5.60;;
23658;SDS011;12006;42.666;23.326;2023-05-10T07:47:35;7.60;;;6.00;;
23658;SDS011;12006;42.666;23.326;2023-05-10T07:50:01;7.37;;;5.73;;
23658;SDS011;12006;42.666;23.326;2023-05-10T07:52:26;7.83;;;5.97;;
23658;SDS011;12006;42.666;23.326;2023-05-10T07:54:52;7.50;;;5.93;;
23658;SDS011;12006;42.666;23.326;2023-05-10T07:57:18;7.43;;;6.20;;
23658;SDS011;12006;42.666;23.326;2023-05-10T07:59:43;7.57;;;5.93;;
23658;SDS011;12006;42.666;23.326;2023-05-10T08:02:10;6.77;;;5.33;;
23658;SDS011;12006;42.666;23.326;2023-05-10T08:04:35;6.77;;;5.30;;
23658;SDS011;12006;42.666;23.326;2023-05-10T08:07:01;6.33;;;5.70;;
23658;SDS011;12006;42.666;23.326;2023-05-10T08:09:26;7.93;;;5.70;;
23658;SDS011;12006;42.666;23.326;2023-05-10T08:11:51;7.87;;;5.87;;
23658;SDS011;12006;42.666;23.326;2023-05-10T08:14:17;9.63;;;7.80;;
23658;SDS011;12006;42.666;23.326;2023-05-10T08:16:43;7.93;;;6.93;;
23658;SDS011;12006;42.666;23.326;2023-05-10T08:19:08;8.77;;;7.47;;
23658;SDS011;12006;42.666;23.326;2023-05-10T08:21:33;6.23;;;5.63;;
23658;SDS011;12006;42.666;23.326;2023-05-10T08:23:59;6.63;;;5.47;;
23658;SDS011;12006;42.666;23.326;2023-05-10T08:26:24;7.10;;;6.30;;
23658;SDS011;12006;42.666;23.326;2023-05-10T08:28:50;8.20;;;6.43;;
23658;SDS011;12006;42.666;23.326;2023-05-10T08:31:15;5.33;;;4.83;;
23658;SDS011;12006;42.666;23.326;2023-05-10T08:33:41;8.57;;;6.03;;
23658;SDS011;12006;42.666;23.326;2023-05-10T08:36:06;5.70;;;5.20;;
23658;SDS011;12006;42.666;23.326;2023-05-10T08:38:31;8.07;;;7.03;;
23658;SDS011;12006;42.666;23.326;2023-05-10T08:40:57;6.53;;;5.67;;
23658;SDS011;12006;42.666;23.326;2023-05-10T08:43:26;9.50;;;7.33;;
23658;SDS011;12006;42.666;23.326;2023-05-10T08:45:54;6.60;;;5.73;;
23658;SDS011;12006;42.666;23.326;2023-05-10T08:48:21;7.30;;;5.70;;
23658;SDS011;12006;42.666;23.326;2023-05-10T08:50:49;6.30;;;5.70;;
23658;SDS011;12006;42.666;23.326;2023-05-10T08:53:19;6.53;;;5.90;;
23658;SDS011;12006;42.666;23.326;2023-05-10T08:55:46;7.00;;;6.30;;
23658;SDS011;12006;42.666;23.326;2023-05-10T08:58:12;6.60;;;5.70;;
23658;SDS011;12006;42.666;23.326;2023-05-10T09:00:37;7.50;;;5.93;;
23658;SDS011;12006;42.666;23.326;2023-05-10T09:03:03;7.27;;;6.50;;
23658;SDS011;12006;42.666;23.326;2023-05-10T09:05:30;6.93;;;6.23;;
23658;SDS011;12006;42.666;23.326;2023-05-10T09:07:56;8.13;;;6.60;;
23658;SDS011;12006;42.666;23.326;2023-05-10T09:10:21;6.90;;;6.10;;
23658;SDS011;12006;42.666;23.326;2023-05-10T09:12:48;6.57;;;5.87;;
23658;SDS011;12006;42.666;23.326;2023-05-10T09:15:14;6.93;;;6.23;;
23658;SDS011;12006;42.666;23.326;2023-05-10T09:17:41;8.53;;;6.73;;
23658;SDS011;12006;42.666;23.326;2023-05-10T09:20:09;8.83;;;7.03;;
23658;SDS011;12006;42.666;23.326;2023-05-10T09:22:34;10.43;;;8.63;;
23658;SDS011;12006;42.666;23.326;2023-05-10T09:25:04;9.87;;;7.87;;
23658;SDS011;12006;42.666;23.326;2023-05-10T09:27:34;7.70;;;5.83;;
23658;SDS011;12006;42.666;23.326;2023-05-10T09:30:00;7.20;;;6.50;;
23658;SDS011;12006;42.666;23.326;2023-05-10T09:32:38;7.47;;;6.63;;
23658;SDS011;12006;42.666;23.326;2023-05-10T09:37:35;8.07;;;7.27;;
23658;SDS011;12006;42.666;23.326;2023-05-10T09:40:00;7.97;;;7.17;;
23658;SDS011;12006;42.666;23.326;2023-05-10T09:42:29;7.43;;;6.70;;
23658;SDS011;12006;42.666;23.326;2023-05-10T09:44:58;7.50;;;6.73;;
23658;SDS011;12006;42.666;23.326;2023-05-10T09:47:34;6.27;;;5.63;;
23658;SDS011;12006;42.666;23.326;2023-05-10T09:50:00;7.80;;;7.10;;
23658;SDS011;12006;42.666;23.326;2023-05-10T09:52:30;13.23;;;10.60;;
23658;SDS011;12006;42.666;23.326;2023-05-10T09:55:10;22.30;;;17.07;;
23658;SDS011;12006;42.666;23.326;2023-05-10T09:57:35;8.03;;;7.17;;
23658;SDS011;12006;42.666;23.326;2023-05-10T10:00:01;7.33;;;6.50;;
23658;SDS011;12006;42.666;23.326;2023-05-10T10:02:30;7.03;;;6.33;;
23658;SDS011;12006;42.666;23.326;2023-05-10T10:04:56;6.93;;;5.70;;
23658;SDS011;12006;42.666;23.326;2023-05-10T10:07:22;7.00;;;5.73;;
23658;SDS011;12006;42.666;23.326;2023-05-10T10:09:52;9.03;;;6.87;;
23658;SDS011;12006;42.666;23.326;2023-05-10T10:12:18;8.77;;;7.50;;
23658;SDS011;12006;42.666;23.326;2023-05-10T10:14:46;8.73;;;6.50;;
23658;SDS011;12006;42.666;23.326;2023-05-10T10:17:12;7.63;;;6.90;;
23658;SDS011;12006;42.666;23.326;2023-05-10T10:19:38;8.57;;;6.33;;
23658;SDS011;12006;42.666;23.326;2023-05-10T10:22:04;6.47;;;5.83;;
23658;SDS011;12006;42.666;23.326;2023-05-10T10:24:30;5.87;;;5.23;;
23658;SDS011;12006;42.666;23.326;2023-05-10T10:26:57;6.90;;;5.27;;
23658;SDS011;12006;42.666;23.326;2023-05-10T10:34:50;7.90;;;5.60;;
23658;SDS011;12006;42.666;23.326;2023-05-10T10:37:17;5.97;;;5.00;;
23658;SDS011;12006;42.666;23.326;2023-05-10T10:39:42;7.03;;;6.33;;
23658;SDS011;12006;42.666;23.326;2023-05-10T10:42:08;5.77;;;5.27;;
23658;SDS011;12006;42.666;23.326;2023-05-10T10:44:34;4.70;;;4.30;;
23658;SDS011;12006;42.666;23.326;2023-05-10T10:49:34;6.47;;;5.87;;
23658;SDS011;12006;42.666;23.326;2023-05-10T10:52:23;7.80;;;5.60;;
23658;SDS011;12006;42.666;23.326;2023-05-10T11:02:46;5.87;;;4.97;;
23658;SDS011;12006;42.666;23.326;2023-05-10T11:05:23;6.87;;;5.10;;
23658;SDS011;12006;42.666;23.326;2023-05-10T11:08:00;5.53;;;5.03;;
23658;SDS011;12006;42.666;23.326;2023-05-10T11:10:31;5.30;;;4.80;;
23658;SDS011;12006;42.666;23.326;2023-05-10T11:13:01;5.53;;;4.80;;
23658;SDS011;12006;42.666;23.326;2023-05-10T11:15:28;5.50;;;5.00;;
23658;SDS011;12006;42.666;23.326;2023-05-10T11:17:57;5.33;;;4.80;;
23658;SDS011;12006;42.666;23.326;2023-05-10T11:20:23;4.97;;;4.50;;
23658;SDS011;12006;42.666;23.326;2023-05-10T11:22:58;5.93;;;4.13;;
23658;SDS011;12006;42.666;23.326;2023-05-10T11:25:35;5.57;;;4.87;;
23658;SDS011;12006;42.666;23.326;2023-05-10T11:28:06;4.70;;;4.30;;
23658;SDS011;12006;42.666;23.326;2023-05-10T11:30:31;4.83;;;4.43;;
23658;SDS011;12006;42.666;23.326;2023-05-10T11:32:57;4.90;;;4.40;;
23658;SDS011;12006;42.666;23.326;2023-05-10T11:35:22;6.27;;;5.60;;
23658;SDS011;12006;42.666;23.326;2023-05-10T11:37:48;5.73;;;4.90;;
23658;SDS011;12006;42.666;23.326;2023-05-10T11:40:13;5.70;;;5.10;;
23658;SDS011;12006;42.666;23.326;2023-05-10T11:42:39;6.17;;;5.10;;
23658;SDS011;12006;42.666;23.326;2023-05-10T11:45:05;4.77;;;4.37;;
23658;SDS011;12006;42.666;23.326;2023-05-10T11:47:31;5.43;;;4.87;;
23658;SDS011;12006;42.666;23.326;2023-05-10T11:49:57;6.83;;;4.43;;
23658;SDS011;12006;42.666;23.326;2023-05-10T11:52:22;6.07;;;4.40;;
23658;SDS011;12006;42.666;23.326;2023-05-10T11:54:52;4.93;;;4.30;;
23658;SDS011;12006;42.666;23.326;2023-05-10T11:57:19;4.53;;;4.10;;
23658;SDS011;12006;42.666;23.326;2023-05-10T11:59:47;4.97;;;4.57;;
23658;SDS011;12006;42.666;23.326;2023-05-10T12:02:18;6.77;;;5.40;;
23658;SDS011;12006;42.666;23.326;2023-05-10T12:04:44;4.47;;;4.07;;
23658;SDS011;12006;42.666;23.326;2023-05-10T12:07:09;6.13;;;4.70;;
23658;SDS011;12006;42.666;23.326;2023-05-10T12:09:35;6.00;;;5.40;;
23658;SDS011;12006;42.666;23.326;2023-05-10T12:12:00;5.60;;;5.00;;
23658;SDS011;12006;42.666;23.326;2023-05-10T12:14:27;8.97;;;7.23;;
23658;SDS011;12006;42.666;23.326;2023-05-10T12:16:53;10.80;;;7.67;;
23658;SDS011;12006;42.666;23.326;2023-05-10T12:19:18;7.07;;;5.97;;
23658;SDS011;12006;42.666;23.326;2023-05-10T12:21:47;7.13;;;5.67;;
23658;SDS011;12006;42.666;23.326;2023-05-10T12:24:13;6.17;;;5.57;;
23658;SDS011;12006;42.666;23.326;2023-05-10T12:26:42;5.53;;;4.97;;
23658;SDS011;12006;42.666;23.326;2023-05-10T12:29:15;6.67;;;5.40;;
23658;SDS011;12006;42.666;23.326;2023-05-10T12:31:51;6.57;;;5.97;;
23658;SDS011;12006;42.666;23.326;2023-05-10T12:34:27;6.90;;;6.20;;
23658;SDS011;12006;42.666;23.326;2023-05-10T12:36:56;6.60;;;5.73;;
23658;SDS011;12006;42.666;23.326;2023-05-10T12:39:21;8.20;;;5.97;;
23658;SDS011;12006;42.666;23.326;2023-05-10T12:41:47;6.03;;;5.43;;
23658;SDS011;12006;42.666;23.326;2023-05-10T12:44:12;5.70;;;5.13;;
23658;SDS011;12006;42.666;23.326;2023-05-10T12:46:37;5.87;;;5.23;;
23658;SDS011;12006;42.666;23.326;2023-05-10T12:49:03;6.53;;;5.83;;
23658;SDS011;12006;42.666;23.326;2023-05-10T12:51:28;5.13;;;4.63;;
23658;SDS011;12006;42.666;23.326;2023-05-10T12:53:54;6.23;;;5.33;;
23658;SDS011;12006;42.666;23.326;2023-05-10T12:56:20;6.33;;;5.30;;
23658;SDS011;12006;42.666;23.326;2023-05-10T12:58:45;6.50;;;5.77;;
23658;SDS011;12006;42.666;23.326;2023-05-10T13:01:13;6.83;;;5.47;;
23658;SDS011;12006;42.666;23.326;2023-05-10T13:03:38;7.37;;;5.87;;
23658;SDS011;12006;42.666;23.326;2023-05-10T13:06:04;5.83;;;5.23;;
23658;SDS011;12006;42.666;23.326;2023-05-10T13:08:30;6.27;;;5.70;;
23658;SDS011;12006;42.666;23.326;2023-05-10T13:10:58;6.57;;;5.90;;
23658;SDS011;12006;42.666;23.326;2023-05-10T13:13:24;6.77;;;4.80;;
23658;SDS011;12006;42.666;23.326;2023-05-10T13:15:49;7.47;;;5.47;;
23658;SDS011;12006;42.666;23.326;2023-05-10T13:18:15;5.97;;;5.37;;
23658;SDS011;12006;42.666;23.326;2023-05-10T13:20:40;5.90;;;5.30;;
23658;SDS011;12006;42.666;23.326;2023-05-10T13:23:06;5.63;;;5.13;;
23658;SDS011;12006;42.666;23.326;2023-05-10T13:25:31;9.83;;;7.73;;
23658;SDS011;12006;42.666;23.326;2023-05-10T13:27:56;8.40;;;6.23;;
23658;SDS011;12006;42.666;23.326;2023-05-10T13:30:22;7.60;;;6.67;;
23658;SDS011;12006;42.666;23.326;2023-05-10T13:32:48;7.97;;;6.00;;
23658;SDS011;12006;42.666;23.326;2023-05-10T13:35:14;5.33;;;4.87;;
23658;SDS011;12006;42.666;23.326;2023-05-10T13:37:39;7.03;;;5.30;;
23658;SDS011;12006;42.666;23.326;2023-05-10T13:40:05;5.60;;;4.90;;
23658;SDS011;12006;42.666;23.326;2023-05-10T13:42:31;7.57;;;5.57;;
23658;SDS011;12006;42.666;23.326;2023-05-10T13:44:58;5.80;;;4.97;;
23658;SDS011;12006;42.666;23.326;2023-05-10T13:47:24;7.23;;;5.40;;
23658;SDS011;12006;42.666;23.326;2023-05-10T13:49:49;6.23;;;5.63;;
23658;SDS011;12006;42.666;23.326;2023-05-10T13:52:14;7.17;;;5.27;;
23658;SDS011;12006;42.666;23.326;2023-05-10T13:54:40;6.27;;;5.50;;
23658;SDS011;12006;42.666;23.326;2023-05-10T13:57:05;9.67;;;5.20;;
23658;SDS011;12006;42.666;23.326;2023-05-10T13:59:31;7.10;;;5.80;;
23658;SDS011;12006;42.666;23.326;2023-05-10T14:01:57;6.73;;;5.27;;
23658;SDS011;12006;42.666;23.326;2023-05-10T14:04:23;9.37;;;6.93;;
23658;SDS011;12006;42.666;23.326;2023-05-10T14:06:49;8.40;;;6.53;;
23658;SDS011;12006;42.666;23.326;2023-05-10T14:09:14;8.07;;;6.37;;
23658;SDS011;12006;42.666;23.326;2023-05-10T14:11:40;6.50;;;5.77;;
23658;SDS011;12006;42.666;23.326;2023-05-10T14:14:08;6.77;;;5.63;;
23658;SDS011;12006;42.666;23.326;2023-05-10T14:16:34;6.40;;;5.33;;
23658;SDS011;12006;42.666;23.326;2023-05-10T14:19:00;5.63;;;4.60;;
23658;SDS011;12006;42.666;23.326;2023-05-10T14:21:25;8.23;;;5.13;;
23658;SDS011;12006;42.666;23.326;2023-05-10T14:23:50;6.80;;;5.00;;
23658;SDS011;12006;42.666;23.326;2023-05-10T14:26:16;6.50;;;5.50;;
23658;SDS011;12006;42.666;23.326;2023-05-10T14:28:41;6.50;;;5.67;;
23658;SDS011;12006;42.666;23.326;2023-05-10T14:31:07;6.03;;;5.43;;
23658;SDS011;12006;42.666;23.326;2023-05-10T14:33:32;6.63;;;5.93;;
23658;SDS011;12006;42.666;23.326;2023-05-10T14:35:57;6.97;;;6.27;;
23658;SDS011;12006;42.666;23.326;2023-05-10T14:38:24;7.27;;;5.40;;
23658;SDS011;12006;42.666;23.326;2023-05-10T14:40:49;8.83;;;5.50;;
23658;SDS011;12006;42.666;23.326;2023-05-10T14:43:14;6.20;;;5.30;;
23658;SDS011;12006;42.666;23.326;2023-05-10T14:45:40;5.87;;;5.10;;
23658;SDS011;12006;42.666;23.326;2023-05-10T14:48:06;4.97;;;4.57;;
23658;SDS011;12006;42.666;23.326;2023-05-10T14:50:36;5.10;;;4.60;;
23658;SDS011;12006;42.666;23.326;2023-05-10T14:53:01;8.27;;;4.93;;
23658;SDS011;12006;42.666;23.326;2023-05-10T14:55:26;6.53;;;4.57;;
23658;SDS011;12006;42.666;23.326;2023-05-10T14:57:52;6.27;;;4.90;;
23658;SDS011;12006;42.666;23.326;2023-05-10T15:00:17;5.67;;;5.07;;
23658;SDS011;12006;42.666;23.326;2023-05-10T15:02:44;6.27;;;5.27;;
23658;SDS011;12006;42.666;23.326;2023-05-10T15:05:09;5.70;;;5.10;;
23658;SDS011;12006;42.666;23.326;2023-05-10T15:07:35;7.10;;;5.43;;